METAR Data
IDs: Format: Raw Decoded Include TAF

Data at: 1953 UTC 14 Dec 2018

KELA 141935Z AUTO 29014G22KT 10SM OVC026 10/05 A3001 RMK AO2 T00960045
KELA 141915Z AUTO 31015G25KT 10SM OVC026 10/04 A3001 RMK AO2 T00950043
KELA 141855Z AUTO 30012G22KT 10SM OVC026 10/04 A3001 RMK AO2 T00960044
KELA 141835Z AUTO 31012G19KT 10SM OVC026 10/04 A3002 RMK AO2 T00960043
KELA 141815Z AUTO 31011G18KT 10SM OVC026 10/04 A3003 RMK AO2 T00960042
KELA 141755Z AUTO 31012G18KT 10SM OVC026 10/04 A3003 RMK AO2 T00950042 10095 20084
KELA 141735Z AUTO 30010G15KT 10SM OVC024 09/05 A3003 RMK AO2 T00940045
KELA 141715Z AUTO 31010G19KT 10SM OVC024 09/04 A3004 RMK AO2 T00940043
KELA 141655Z AUTO 32011G21KT 10SM OVC024 10/05 A3004 RMK AO2 T00950045
KELA 141635Z AUTO 31010G19KT 10SM OVC024 09/04 A3004 RMK AO2 T00910041
KELA 141615Z AUTO 31012G22KT 10SM OVC024 09/04 A3002 RMK AO2 T00910041
KELA 141555Z AUTO 31013G23KT 10SM OVC026 09/04 A3001 RMK AO2 T00900039
KELA 141535Z AUTO 30014G23KT 10SM OVC026 09/04 A3000 RMK AO2 T00910040
KELA 141515Z AUTO 31014G21KT 10SM OVC026 09/04 A2999 RMK AO2 T00870037
KELA 141455Z AUTO 31014G22KT 10SM OVC026 09/04 A2998 RMK AO2 LTG DSNT NE T00850036
KELA 141435Z AUTO 31013G20KT 10SM OVC026 09/04 A2998 RMK AO2 T00850038
KELA 141415Z AUTO 30013G22KT 10SM OVC026 09/04 A2997 RMK AO2 T00850038
KELA 141355Z AUTO 30013G21KT 10SM OVC026 09/04 A2996 RMK AO2 T00850039
KELA 141335Z AUTO 30017G23KT 10SM OVC026 09/04 A2995 RMK AO2 T00850038
KELA 141315Z AUTO 30013G20KT 10SM OVC026 09/04 A2995 RMK AO2 T00850039
KELA 141255Z AUTO 29012G19KT 10SM OVC026 09/04 A2994 RMK AO2 T00850039
KELA 141235Z AUTO 30014G25KT 10SM OVC026 09/04 A2994 RMK AO2 T00860037
KELA 141215Z AUTO 29015G27KT 10SM OVC024 09/04 A2993 RMK AO2 LTG DSNT NE T00850039
KELA 141155Z AUTO 30015G20KT 10SM OVC024 08/04 A2992 RMK AO2 T00840041 10100 20074
KELA 141135Z AUTO 30015G24KT 10SM SCT013 SCT018 OVC024 08/05 A2992 RMK AO2 T00810045
KELA 141115Z AUTO 28009G17KT 5SM BR SCT013 OVC020 08/06 A2991 RMK AO2 T00750058
KELA 141055Z AUTO 29012G16KT 7SM OVC022 08/05 A2991 RMK AO2 T00800049
KELA 141035Z AUTO 31014G21KT 10SM OVC024 09/04 A2989 RMK AO2 T00850041
KELA 141015Z AUTO 30013G21KT 10SM OVC024 09/04 A2989 RMK AO2 T00850042
KELA 140955Z AUTO 29009G21KT 10SM OVC024 09/04 A2988 RMK AO2 T00850043
KELA 140935Z AUTO 29017G24KT 10SM OVC024 09/04 A2988 RMK AO2 T00870044
KELA 140915Z AUTO 30011G18KT 10SM OVC024 09/05 A2987 RMK AO2 T00870045
KELA 140855Z AUTO 30011G23KT 10SM OVC024 09/04 A2988 RMK AO2 T00880043
KELA 140835Z AUTO 30012G19KT 10SM OVC024 09/04 A2988 RMK AO2 T00880043
KELA 140815Z AUTO 29012G21KT 10SM BKN026 OVC031 09/04 A2988 RMK AO2 T00900043
KELA 140755Z AUTO 29016G25KT 10SM OVC028 09/04 A2988 RMK AO2 T00930044
KELA 140735Z AUTO 29010G19KT 10SM OVC028 10/04 A2987 RMK AO2 T00950042
KELA 140715Z AUTO 29012G18KT 10SM BKN028 OVC037 09/04 A2987 RMK AO2 T00940043
KELA 140655Z AUTO 30011G21KT 10SM BKN030 OVC037 10/04 A2987 RMK AO2 T00950042
KELA 140635Z AUTO 30011G17KT 10SM OVC032 10/04 A2987 RMK AO2 T00950043
KELA 140615Z AUTO 28011G16KT 10SM BKN033 OVC044 10/04 A2988 RMK AO2 T00980041
KELA 140555Z AUTO 29015G21KT 10SM OVC033 10/04 A2988 RMK AO2 T01000041 10180 20098 402380098
KELA 140535Z AUTO 29012G21KT 10SM OVC035 10/04 A2987 RMK AO2 T01000041
KELA 140515Z AUTO 28013G19KT 10SM SCT035 OVC041 10/04 A2988 RMK AO2 T01000040
KELA 140455Z AUTO 29016G23KT 10SM OVC041 10/04 A2987 RMK AO2 T01020037
KELA 140435Z AUTO 28011G16KT 10SM OVC041 10/04 A2986 RMK AO2 T01030042
KELA 140415Z AUTO 29011G17KT 10SM BKN039 10/04 A2986 RMK AO2 T01010040
KELA 140355Z AUTO 28011G17KT 10SM CLR 10/04 A2987 RMK AO2 T01000040
KELA 140335Z AUTO 29011G19KT 10SM CLR 10/04 A2987 RMK AO2 T01000040
KELA 140315Z AUTO 29013G22KT 10SM CLR 11/04 A2987 RMK AO2 T01050039
KELA 140255Z AUTO 29015G24KT 10SM CLR 11/04 A2986 RMK AO2 T01090037
KELA 140235Z AUTO 29015G21KT 10SM CLR 11/04 A2984 RMK AO2 T01120039
KELA 140215Z AUTO 29017G29KT 10SM CLR 12/04 A2984 RMK AO2 T01170036
KELA 140155Z AUTO 29018G24KT 10SM CLR 12/04 A2984 RMK AO2 T01220042
KELA 140135Z AUTO 29016G24KT 10SM CLR 13/05 A2982 RMK AO2 T01270047
KELA 140115Z AUTO 30020G27KT 10SM CLR 14/05 A2982 RMK AO2 T01350047
KELA 140055Z AUTO 29022G27KT 10SM CLR 15/05 A2981 RMK AO2 T01470051
KELA 140035Z AUTO 26005KT 10SM CLR 17/04 A2977 RMK AO2 T01650042
KELA 140015Z AUTO 25006KT 10SM CLR 17/04 A2977 RMK AO2 T01720039
KELA 132355Z AUTO 27006KT 10SM CLR 18/04 A2976 RMK AO2 T01810040 10238 20181
KELA 132335Z AUTO 26005KT 10SM SCT110 19/05 A2975 RMK AO2 T01860048
KELA 132315Z AUTO 27007KT 10SM BKN120 20/05 A2975 RMK AO2 T01970049
KELA 132255Z AUTO 28008G14KT 10SM SCT100 BKN120 21/05 A2974 RMK AO2 T02050050
KELA 132235Z AUTO 28009KT 10SM SCT100 OVC120 21/06 A2974 RMK AO2 T02050056
KELA 132215Z AUTO 29009KT 10SM OVC120 21/07 A2973 RMK AO2 T02090065
KELA 132155Z AUTO 29011G20KT 10SM BKN110 22/08 A2973 RMK AO2 T02230080
KELA 132135Z AUTO 29009G15KT 240V330 10SM SCT110 23/10 A2972 RMK AO2 T02260100
KELA 132115Z AUTO 27008G16KT 10SM SCT060 SCT100 24/12 A2971 RMK AO2 T02350115
KELA 132055Z AUTO 27012G15KT 10SM SCT060 24/12 A2971 RMK AO2 T02360117
KELA 132035Z AUTO 28012G17KT 10SM CLR 24/11 A2971 RMK AO2 LTG DSNT N T02350110
KELA 132015Z AUTO 28010G18KT 10SM CLR 24/11 A2971 RMK AO2 T02370114
KELA 131955Z AUTO 26012G17KT 10SM SCT095 24/12 A2971 RMK AO2 T02380124
KELA 131935Z AUTO 28012G15KT 10SM CLR 24/13 A2971 RMK AO2 LTG DSNT N T02350125
KELA 131915Z AUTO 29012G21KT 10SM CLR 23/13 A2971 RMK AO2 T02330130
KELA 131855Z AUTO 26012G19KT 10SM CLR 23/14 A2971 RMK AO2 T02320135
KELA 131835Z AUTO 26009G17KT 10SM CLR 23/14 A2972 RMK AO2 T02300137
KELA 131815Z AUTO 25011G16KT 10SM CLR 23/15 A2973 RMK AO2 T02270148
KELA 131755Z AUTO 25009G14KT 10SM CLR 23/15 A2973 RMK AO2 T02250152 10225 20166
KELA 131735Z AUTO 24010G16KT 10SM CLR 22/16 A2975 RMK AO2 T02200160
KELA 131715Z AUTO 24011G16KT 10SM CLR 22/16 A2976 RMK AO2 T02150163
KELA 131655Z AUTO 24010G15KT 10SM CLR 21/16 A2976 RMK AO2 LTG DSNT N T02110163
KELA 131635Z AUTO 24012G15KT 10SM CLR 21/17 A2978 RMK AO2 T02100167
KELA 131615Z AUTO 25012G17KT 10SM CLR 21/16 A2978 RMK AO2 T02050163
KELA 131555Z AUTO 25009KT 10SM CLR 20/17 A2978 RMK AO2 T02010165
KELA 131535Z AUTO 24010KT 10SM CLR 20/17 A2978 RMK AO2 T01980165
KELA 131515Z AUTO 25008KT 10SM CLR 20/16 A2977 RMK AO2 T01950162
KELA 131455Z AUTO 24007KT 10SM CLR 19/17 A2977 RMK AO2 T01920168
KELA 131435Z AUTO 22006KT 10SM CLR 19/17 A2977 RMK AO2 T01880170
KELA 131415Z AUTO 22004KT 10SM CLR 19/17 A2977 RMK AO2 T01850173
KELA 131355Z AUTO 22003KT 10SM CLR 18/17 A2976 RMK AO2 T01750172
KELA 131335Z AUTO 17005KT 10SM CLR 17/17 A2975 RMK AO2 T01690165
KELA 131315Z AUTO 19004KT 10SM CLR 18/17 A2975 RMK AO2 T01760173
KELA 131255Z AUTO 18003KT 10SM CLR 18/17 A2974 RMK AO2 T01760171
KELA 131235Z AUTO 00000KT 10SM SCT026 SCT120 18/17 A2973 RMK AO2 T01780174
KELA 131215Z AUTO 16004KT 10SM BKN026 18/18 A2973 RMK AO2 LTG DSNT E T01810176
KELA 131155Z AUTO 14004KT 10SM OVC026 19/18 A2973 RMK AO2 LTG DSNT E 60052 70052 T01850180 10193 20183
KELA 131135Z AUTO 14005KT 10SM SCT015 BKN032 19/18 A2973 RMK AO2 T01850180
KELA 131115Z AUTO 13004KT 10SM BKN015 19/18 A2973 RMK AO2 LTG DSNT SE T01850180
KELA 131055Z AUTO 13003KT 10SM OVC013 19/18 A2973 RMK AO2 P0001 T01880180
KELA 131035Z AUTO 00000KT 10SM OVC015 19/18 A2973 RMK AO2 LTG DSNT NE AND E P0001 T01860180
KELA 131015Z AUTO 12004KT 10SM VCTS BKN018 19/18 A2971 RMK AO2 LTG DSNT NE AND E P0001 T01870180
KELA 130955Z AUTO 16010KT 10SM SCT008 19/18 A2971 RMK AO2 LTG DSNT E AND SE P0013 T01850177
KELA 130935Z AUTO 16009G15KT 10SM VCTS SCT008 SCT013 BKN031 19/18 A2972 RMK AO2 LTG DSNT NE THRU S P0013 T01880181
KELA 130915Z AUTO 20010G22KT 7SM -VCTSRA SCT007 BKN028 OVC033 19/18 A2976 RMK AO2 LTG DSNT NE THRU S P0013 T01860177
KELA 130855Z AUTO 17011KT 5SM /VCTSRA BKN010 BKN016 OVC036 19/19 A2977 RMK AO2 LTG DSNT ALQS P0019 60037 T01910185
KELA 130835Z AUTO 19010KT 10SM VCTSRA BKN010 BKN016 OVC027 19/18 A2976 RMK AO2 LTG DSNT NE THRU SE P0011 T01900182
KELA 130815Z AUTO 15013KT 7SM VCTSRA SCT005 BKN015 OVC022 19/18 A2976 RMK AO2 LTG DSNT ALQS P0010 T01900183
KELA 130755Z AUTO 17012G15KT 4SM +TSRA SCT005 OVC015 19/18 A2978 RMK AO2 LTG DSNT ALQS P0018 T01870181